createdAt,value
2023-04-29T00:00:04.366Z,51.09
2023-04-29T00:02:58.110Z,51.10
2023-04-29T00:05:24.707Z,50.45
2023-04-29T00:07:51.229Z,50.23
2023-04-29T00:10:17.675Z,50.28
2023-04-29T00:12:44.055Z,50.80
2023-04-29T00:15:10.493Z,50.35
2023-04-29T00:17:37.146Z,50.54
2023-04-29T00:20:04.805Z,50.53
2023-04-29T00:22:31.247Z,50.75
2023-04-29T00:24:57.679Z,51.00
2023-04-29T00:27:24.436Z,51.20
2023-04-29T00:29:51.766Z,51.15
2023-04-29T00:32:18.383Z,51.05
2023-04-29T00:34:44.872Z,51.22
2023-04-29T00:37:11.248Z,51.18
2023-04-29T00:39:40.047Z,51.59
2023-04-29T00:42:06.696Z,51.53
2023-04-29T00:44:33.014Z,51.88
2023-04-29T00:46:59.360Z,51.71
2023-04-29T00:49:25.920Z,51.67
2023-04-29T00:51:52.931Z,51.97
2023-04-29T00:54:19.437Z,51.93
2023-04-29T00:56:45.993Z,51.83
2023-04-29T00:59:12.605Z,51.89
2023-04-29T01:01:39.175Z,51.90
2023-04-29T01:04:06.021Z,51.89
2023-04-29T01:06:40.269Z,52.05
2023-04-29T01:09:22.351Z,52.11
2023-04-29T01:12:05.493Z,52.02
2023-04-29T01:14:32.920Z,52.12
2023-04-29T01:17:02.420Z,52.06
2023-04-29T01:19:38.137Z,52.24
2023-04-29T01:22:07.426Z,52.40
2023-04-29T01:24:34.884Z,52.47
2023-04-29T01:27:27.738Z,52.35
2023-04-29T01:30:07.119Z,52.38
2023-04-29T01:32:41.080Z,52.54
2023-04-29T01:35:10.524Z,52.65
2023-04-29T01:37:36.971Z,52.50
2023-04-29T01:40:19.031Z,52.80
2023-04-29T01:43:04.497Z,53.16
2023-04-29T01:45:33.552Z,52.89
2023-04-29T01:48:00.062Z,53.07
2023-04-29T01:50:26.963Z,52.95
2023-04-29T01:52:55.372Z,53.04
2023-04-29T01:55:21.830Z,52.94
2023-04-29T01:57:56.244Z,53.00
2023-04-29T02:00:55.202Z,53.05
2023-04-29T02:03:21.815Z,53.03
2023-04-29T02:05:51.491Z,53.04
2023-04-29T02:08:17.930Z,53.10
2023-04-29T02:10:51.742Z,53.32
2023-04-29T02:13:44.064Z,53.25
2023-04-29T02:16:12.025Z,53.26
2023-04-29T02:18:42.102Z,53.43
2023-04-29T02:21:08.994Z,53.56
2023-04-29T02:23:35.869Z,53.59
2023-04-29T02:26:02.170Z,53.45
2023-04-29T02:28:28.707Z,53.58
2023-04-29T02:30:54.984Z,53.76
2023-04-29T02:33:21.319Z,53.66
2023-04-29T02:35:47.666Z,53.63
2023-04-29T02:38:16.093Z,53.66
2023-04-29T02:40:42.819Z,53.85
2023-04-29T02:43:09.115Z,53.97
2023-04-29T02:45:35.677Z,54.07
2023-04-29T02:48:02.099Z,54.20
2023-04-29T02:50:28.523Z,54.36
2023-04-29T02:52:55.042Z,54.15
2023-04-29T02:55:21.305Z,54.53
2023-04-29T02:57:47.640Z,54.57
2023-04-29T03:00:14.162Z,54.39
2023-04-29T03:02:40.700Z,54.44
2023-04-29T03:05:07.468Z,54.68
2023-04-29T03:07:34.073Z,54.79
2023-04-29T03:10:00.429Z,54.80
2023-04-29T03:12:26.786Z,54.85
2023-04-29T03:14:53.110Z,54.74
2023-04-29T03:17:19.427Z,54.93
2023-04-29T03:19:45.882Z,55.14
2023-04-29T03:22:13.408Z,55.30
2023-04-29T03:24:41.342Z,55.34
2023-04-29T03:27:07.819Z,55.23
2023-04-29T03:29:34.424Z,55.34
2023-04-29T03:32:00.978Z,55.26
2023-04-29T03:34:27.621Z,55.62
2023-04-29T03:37:12.611Z,56.47
2023-04-29T03:39:41.001Z,56.77
2023-04-29T03:42:07.342Z,56.91
2023-04-29T03:44:33.733Z,56.47
2023-04-29T03:47:00.026Z,55.81
2023-04-29T03:49:26.319Z,55.83
2023-04-29T03:51:52.704Z,55.68
2023-04-29T03:54:19.039Z,55.60
2023-04-29T03:56:45.978Z,55.78
2023-04-29T03:59:12.548Z,55.72
2023-04-29T04:01:40.448Z,55.68
2023-04-29T04:04:07.185Z,56.07
2023-04-29T04:06:34.881Z,56.04
2023-04-29T04:09:02.115Z,56.53
2023-04-29T04:11:30.511Z,57.63
2023-04-29T04:13:59.645Z,57.03
2023-04-29T04:16:26.080Z,56.69
2023-04-29T04:18:52.484Z,56.59
2023-04-29T04:21:18.871Z,56.67
2023-04-29T04:23:51.401Z,56.51
2023-04-29T04:26:20.834Z,56.37
2023-04-29T04:28:56.025Z,56.43
2023-04-29T04:31:30.668Z,57.14
2023-04-29T04:33:57.060Z,56.87
2023-04-29T04:36:23.623Z,56.81
2023-04-29T04:38:49.934Z,57.04
2023-04-29T04:41:16.342Z,56.83
2023-04-29T04:43:45.442Z,56.88
2023-04-29T04:46:20.623Z,56.82
2023-04-29T04:48:59.235Z,57.24
2023-04-29T04:51:27.203Z,57.82
2023-04-29T04:53:53.679Z,58.08
2023-04-29T04:56:22.548Z,58.19
2023-04-29T04:58:49.281Z,57.79
2023-04-29T05:01:15.658Z,57.60
2023-04-29T05:03:42.140Z,57.53
2023-04-29T05:06:08.786Z,57.41
2023-04-29T05:08:35.691Z,57.28
2023-04-29T05:11:02.700Z,57.31
2023-04-29T05:13:29.083Z,57.17
2023-04-29T05:15:56.050Z,57.29
2023-04-29T05:18:25.651Z,57.10
2023-04-29T05:20:52.239Z,56.96
2023-04-29T05:23:18.831Z,56.89
2023-04-29T05:25:45.898Z,56.85
2023-04-29T05:28:12.686Z,57.34
2023-04-29T05:30:40.811Z,57.16
2023-04-29T05:33:07.285Z,57.11
2023-04-29T05:35:33.687Z,57.11
2023-04-29T05:38:00.332Z,57.05
2023-04-29T05:40:34.977Z,57.02
2023-04-29T05:43:26.263Z,56.99
2023-04-29T05:45:53.268Z,57.09
2023-04-29T05:48:20.064Z,57.65
2023-04-29T05:50:46.463Z,57.52
2023-04-29T05:53:12.879Z,57.93
2023-04-29T05:55:40.828Z,57.70
2023-04-29T05:58:07.153Z,58.01
2023-04-29T06:00:33.647Z,58.07
2023-04-29T06:03:03.222Z,58.34
2023-04-29T06:05:30.213Z,58.76
2023-04-29T06:08:12.137Z,58.73
2023-04-29T06:10:44.155Z,58.70
2023-04-29T06:13:10.918Z,59.29
2023-04-29T06:15:37.445Z,60.07
2023-04-29T06:18:03.903Z,59.88
2023-04-29T06:20:30.286Z,59.90
2023-04-29T06:22:56.748Z,60.20
2023-04-29T06:25:23.052Z,60.38
2023-04-29T06:27:50.925Z,60.23
2023-04-29T06:30:20.249Z,60.29
2023-04-29T06:32:46.664Z,60.24
2023-04-29T06:35:13.050Z,62.43
2023-04-29T06:37:58.355Z,64.16
2023-04-29T06:40:43.291Z,64.01
2023-04-29T06:43:30.029Z,66.06
2023-04-29T06:46:15.141Z,65.25
2023-04-29T06:49:07.761Z,62.47
2023-04-29T06:51:34.324Z,61.23
2023-04-29T06:54:00.613Z,61.07
2023-04-29T06:56:27.010Z,62.03
2023-04-29T06:58:53.336Z,61.17
2023-04-29T07:01:19.754Z,60.70
2023-04-29T07:03:46.416Z,60.60
2023-04-29T07:06:13.029Z,60.18
2023-04-29T07:08:39.855Z,60.26
2023-04-29T07:11:06.238Z,60.02
2023-04-29T07:13:32.613Z,60.00
2023-04-29T07:15:58.966Z,61.18
2023-04-29T07:18:25.347Z,60.14
2023-04-29T07:20:51.671Z,60.06
2023-04-29T07:23:18.336Z,60.11
2023-04-29T07:25:45.642Z,60.62
2023-04-29T07:28:15.045Z,61.41
2023-04-29T07:30:41.386Z,61.57
2023-04-29T07:33:08.231Z,61.37
2023-04-29T07:35:34.646Z,60.07
2023-04-29T07:38:00.965Z,60.18
2023-04-29T07:40:27.306Z,59.87
2023-04-29T07:42:57.521Z,60.21
2023-04-29T07:45:23.829Z,61.44
2023-04-29T07:47:50.242Z,64.55
2023-04-29T07:50:16.808Z,62.82
2023-04-29T07:52:43.490Z,62.21
2023-04-29T07:55:10.412Z,64.82
2023-04-29T07:57:36.920Z,63.61
2023-04-29T08:00:04.740Z,62.97
2023-04-29T08:02:40.982Z,63.26
2023-04-29T08:05:08.589Z,63.15
2023-04-29T08:07:35.145Z,66.22
2023-04-29T08:10:01.484Z,64.97
2023-04-29T08:12:28.565Z,62.92
2023-04-29T08:14:55.104Z,62.55
2023-04-29T08:17:21.717Z,63.93
2023-04-29T08:19:48.078Z,64.72
2023-04-29T08:22:14.775Z,61.84
2023-04-29T08:24:41.096Z,62.15
2023-04-29T08:27:07.673Z,61.87
2023-04-29T08:29:33.987Z,63.89
2023-04-29T08:32:00.487Z,65.25
2023-04-29T08:34:26.980Z,64.39
2023-04-29T08:36:53.277Z,62.95
2023-04-29T08:39:19.977Z,62.37
2023-04-29T08:41:46.304Z,62.65
2023-04-29T08:44:12.787Z,64.01
2023-04-29T08:46:39.300Z,63.62
2023-04-29T08:49:06.388Z,61.39
2023-04-29T08:51:32.714Z,60.97
2023-04-29T08:53:59.211Z,60.92
2023-04-29T08:56:27.853Z,60.81
2023-04-29T08:58:56.111Z,60.86
2023-04-29T09:01:23.499Z,60.72
2023-04-29T09:03:53.488Z,60.82
2023-04-29T09:06:20.166Z,61.28
2023-04-29T09:08:46.799Z,61.66
2023-04-29T09:11:14.002Z,61.27
2023-04-29T09:13:40.350Z,61.38
2023-04-29T09:16:12.934Z,61.02
2023-04-29T09:18:43.241Z,61.13
2023-04-29T09:21:17.486Z,62.54
2023-04-29T09:23:49.441Z,62.14
2023-04-29T09:26:23.666Z,60.02
2023-04-29T09:29:16.628Z,60.08
2023-04-29T09:31:43.634Z,60.23
2023-04-29T09:34:10.484Z,59.75
2023-04-29T09:36:39.983Z,59.29
2023-04-29T09:39:10.042Z,59.06
2023-04-29T09:41:40.338Z,58.92
2023-04-29T09:44:07.662Z,58.76
2023-04-29T09:46:34.732Z,58.33
2023-04-29T09:49:03.895Z,57.79
2023-04-29T09:51:30.374Z,57.36
2023-04-29T09:53:56.819Z,57.54
2023-04-29T09:56:23.114Z,57.44
2023-04-29T09:58:49.521Z,56.73
2023-04-29T10:01:16.085Z,56.80
2023-04-29T10:03:43.240Z,56.10
2023-04-29T10:06:10.173Z,55.37
2023-04-29T10:08:36.834Z,54.50
2023-04-29T10:11:04.099Z,54.35
2023-04-29T10:13:31.320Z,53.58
2023-04-29T10:16:08.374Z,53.29
2023-04-29T10:18:35.607Z,51.17
2023-04-29T10:21:02.812Z,49.73
2023-04-29T10:23:29.980Z,48.00
2023-04-29T10:25:56.833Z,49.67
2023-04-29T10:28:23.818Z,46.68
2023-04-29T10:30:50.661Z,47.78
2023-04-29T10:33:18.290Z,45.82
2023-04-29T10:35:46.390Z,46.97
2023-04-29T10:38:18.959Z,46.76
2023-04-29T10:40:47.059Z,47.46
2023-04-29T10:43:14.109Z,48.88
2023-04-29T10:45:40.690Z,49.66
2023-04-29T10:48:10.835Z,50.04
2023-04-29T10:50:46.642Z,50.21
2023-04-29T10:53:17.343Z,50.68
2023-04-29T10:55:46.348Z,50.88
2023-04-29T10:58:36.188Z,51.04
2023-04-29T11:01:03.416Z,51.90
2023-04-29T11:03:48.958Z,51.70
2023-04-29T11:06:16.011Z,52.47
2023-04-29T11:08:42.302Z,52.24
2023-04-29T11:11:08.838Z,53.36
2023-04-29T11:13:39.039Z,53.80
2023-04-29T11:16:06.663Z,54.59
2023-04-29T11:18:34.048Z,55.48
2023-04-29T11:21:06.647Z,54.96
2023-04-29T11:23:36.884Z,56.67
2023-04-29T11:26:03.770Z,57.37
2023-04-29T11:28:30.878Z,55.31
2023-04-29T11:30:58.055Z,57.06
2023-04-29T11:33:25.019Z,57.35
2023-04-29T11:35:51.573Z,56.81
2023-04-29T11:38:23.269Z,56.55
2023-04-29T11:40:49.712Z,56.10
2023-04-29T11:43:17.160Z,55.93
2023-04-29T11:45:47.048Z,56.92
2023-04-29T11:48:25.676Z,57.26
2023-04-29T11:50:58.804Z,57.93
2023-04-29T11:53:26.246Z,57.86
2023-04-29T11:55:53.207Z,58.80
2023-04-29T11:58:23.902Z,58.26
2023-04-29T12:00:50.426Z,60.18
2023-04-29T12:03:18.433Z,59.35
2023-04-29T12:05:51.182Z,59.30
2023-04-29T12:08:24.812Z,58.00
2023-04-29T12:10:51.716Z,57.62
2023-04-29T12:13:18.928Z,57.16
2023-04-29T12:15:45.786Z,58.83
2023-04-29T12:18:12.512Z,58.45
2023-04-29T12:20:39.666Z,58.16
2023-04-29T12:23:12.883Z,57.14
2023-04-29T12:25:39.777Z,57.99
2023-04-29T12:28:12.679Z,57.52
2023-04-29T12:30:39.281Z,57.42
2023-04-29T12:33:09.110Z,57.90
2023-04-29T12:35:36.272Z,57.75
2023-04-29T12:38:02.734Z,58.45
2023-04-29T12:40:30.361Z,57.07
2023-04-29T12:42:56.826Z,57.01
2023-04-29T12:45:26.282Z,58.02
2023-04-29T12:47:52.903Z,57.58
2023-04-29T12:50:19.244Z,57.78
2023-04-29T12:52:45.756Z,57.65
2023-04-29T12:55:12.191Z,57.80
2023-04-29T12:57:38.731Z,57.64
2023-04-29T13:00:05.616Z,57.49
2023-04-29T13:02:32.493Z,57.81
2023-04-29T13:04:59.528Z,58.19
2023-04-29T13:07:26.716Z,58.36
2023-04-29T13:09:53.112Z,58.18
2023-04-29T13:12:19.736Z,58.16
2023-04-29T13:14:46.246Z,59.10
2023-04-29T13:17:12.841Z,58.76
2023-04-29T13:19:51.025Z,59.00
2023-04-29T13:22:18.491Z,58.41
2023-04-29T13:24:44.872Z,57.70
2023-04-29T13:27:11.394Z,55.49
2023-04-29T13:29:38.201Z,55.46
2023-04-29T13:32:04.775Z,51.12
2023-04-29T13:34:31.187Z,51.31
2023-04-29T13:37:00.589Z,47.34
2023-04-29T13:39:27.327Z,46.20
2023-04-29T13:41:58.758Z,40.54
2023-04-29T13:44:34.200Z,42.27
2023-04-29T13:47:06.209Z,44.47
2023-04-29T13:59:42.663Z,44.37
2023-04-29T14:02:23.997Z,44.93
2023-04-29T14:04:51.856Z,45.24
2023-04-29T14:07:18.530Z,46.44
2023-04-29T14:09:44.883Z,46.95
2023-04-29T14:12:11.313Z,47.21
2023-04-29T14:14:38.009Z,47.61
2023-04-29T14:17:04.333Z,47.84
2023-04-29T14:19:30.753Z,46.27
2023-04-29T14:21:57.367Z,45.65
2023-04-29T14:24:23.746Z,45.70
2023-04-29T14:26:50.305Z,46.34
2023-04-29T14:29:16.805Z,47.32
2023-04-29T14:31:43.160Z,48.66
2023-04-29T14:34:09.612Z,49.74
2023-04-29T14:36:36.006Z,51.09
2023-04-29T14:39:02.477Z,50.96
2023-04-29T14:41:28.941Z,50.83
2023-04-29T14:43:55.311Z,51.41
2023-04-29T14:46:21.782Z,50.89
2023-04-29T14:48:48.331Z,53.90
2023-04-29T14:51:15.019Z,52.63
2023-04-29T14:53:41.369Z,53.91
2023-04-29T14:56:07.761Z,52.81
2023-04-29T14:58:34.344Z,55.81
2023-04-29T15:01:00.714Z,57.04
2023-04-29T15:04:09.083Z,61.79
2023-04-29T15:06:40.741Z,55.17
2023-04-29T15:09:08.226Z,55.48
2023-04-29T15:11:34.593Z,55.32
2023-04-29T15:14:01.112Z,55.54
2023-04-29T15:16:28.963Z,56.33
2023-04-29T15:18:55.487Z,57.56
2023-04-29T15:21:22.366Z,59.94
2023-04-29T15:23:49.636Z,58.21
2023-04-29T15:26:16.018Z,58.56
2023-04-29T15:28:42.638Z,60.87
2023-04-29T15:31:09.670Z,59.21
2023-04-29T15:33:36.080Z,60.57
2023-04-29T15:36:02.836Z,60.31
2023-04-29T15:38:29.576Z,59.85
2023-04-29T15:40:57.363Z,60.99
2023-04-29T15:43:24.494Z,60.19
2023-04-29T15:45:51.030Z,60.16
2023-04-29T15:48:17.465Z,60.36
2023-04-29T15:50:43.909Z,60.40
2023-04-29T15:53:10.298Z,61.00
2023-04-29T15:55:36.795Z,61.39
2023-04-29T15:58:03.636Z,63.52
2023-04-29T16:00:30.281Z,67.60
2023-04-29T16:02:56.805Z,64.00
2023-04-29T16:05:23.656Z,63.34
2023-04-29T16:07:50.096Z,62.77
2023-04-29T16:10:16.497Z,63.08
2023-04-29T16:12:43.208Z,66.56
2023-04-29T16:15:10.684Z,66.44
2023-04-29T16:17:37.342Z,64.62
2023-04-29T16:20:03.974Z,63.21
2023-04-29T16:22:33.038Z,62.68
2023-04-29T16:24:59.642Z,62.51
2023-04-29T16:27:27.194Z,63.38
2023-04-29T16:29:55.506Z,64.32
2023-04-29T16:32:22.408Z,63.69
2023-04-29T16:34:48.969Z,63.50
2023-04-29T16:37:15.526Z,63.94
2023-04-29T16:39:41.996Z,64.39
2023-04-29T16:42:09.336Z,65.15
2023-04-29T16:44:35.734Z,66.05
2023-04-29T16:47:02.150Z,65.35
2023-04-29T16:49:29.572Z,66.03
2023-04-29T16:51:56.041Z,66.18
2023-04-29T16:54:22.845Z,66.41
2023-04-29T16:56:51.656Z,66.39
2023-04-29T16:59:18.281Z,66.72
2023-04-29T17:01:44.835Z,66.83
2023-04-29T17:04:13.062Z,67.40
2023-04-29T17:06:39.828Z,68.13
2023-04-29T17:09:10.720Z,69.12
2023-04-29T17:11:37.356Z,69.92
2023-04-29T17:14:03.762Z,69.71
2023-04-29T17:16:30.168Z,69.54
2023-04-29T17:18:56.817Z,70.22
2023-04-29T17:21:23.231Z,70.06
2023-04-29T17:23:49.882Z,71.69
2023-04-29T17:26:16.430Z,72.48
2023-04-29T17:28:42.781Z,71.74
2023-04-29T17:31:09.119Z,71.63
2023-04-29T17:33:35.760Z,75.28
2023-04-29T17:36:02.979Z,73.79
2023-04-29T17:38:29.795Z,75.54
2023-04-29T17:40:56.616Z,77.40
2023-04-29T17:43:24.960Z,74.03
2023-04-29T17:45:54.159Z,75.25
2023-04-29T17:48:22.753Z,74.16
2023-04-29T17:50:56.115Z,73.96
2023-04-29T17:53:22.539Z,74.41
2023-04-29T17:55:48.897Z,74.63
2023-04-29T17:58:15.540Z,74.35
2023-04-29T18:00:42.116Z,74.70
2023-04-29T18:03:08.718Z,74.72
2023-04-29T18:05:36.689Z,74.79
2023-04-29T18:08:03.440Z,75.18
2023-04-29T18:10:29.910Z,75.45
2023-04-29T18:12:56.459Z,74.99
2023-04-29T18:15:23.030Z,74.85
2023-04-29T18:17:49.434Z,74.63
2023-04-29T18:20:15.804Z,74.65
2023-04-29T18:22:43.183Z,74.62
2023-04-29T18:25:09.765Z,74.46
2023-04-29T18:27:36.219Z,74.48
2023-04-29T18:30:03.224Z,74.35
2023-04-29T18:32:29.680Z,74.28
2023-04-29T18:34:56.088Z,74.50
2023-04-29T18:37:22.648Z,74.33
2023-04-29T18:39:48.980Z,74.50
2023-04-29T18:42:15.413Z,74.49
2023-04-29T18:44:42.014Z,74.66
2023-04-29T18:47:08.447Z,74.85
2023-04-29T18:49:37.370Z,74.99
2023-04-29T18:52:04.862Z,75.13
2023-04-29T18:54:31.256Z,75.36
2023-04-29T18:56:58.178Z,75.58
2023-04-29T18:59:27.323Z,75.58
2023-04-29T19:01:54.168Z,75.53
2023-04-29T19:04:20.850Z,75.53
2023-04-29T19:06:47.469Z,75.72
2023-04-29T19:09:13.893Z,75.99
2023-04-29T19:11:40.622Z,76.06
2023-04-29T19:14:07.151Z,76.24
2023-04-29T19:16:36.285Z,76.33
2023-04-29T19:19:04.031Z,76.41
2023-04-29T19:21:31.964Z,76.39
2023-04-29T19:23:58.587Z,76.42
2023-04-29T19:26:25.453Z,76.28
2023-04-29T19:28:51.885Z,76.27
2023-04-29T19:31:18.379Z,76.24
2023-04-29T19:33:44.940Z,76.19
2023-04-29T19:36:11.532Z,76.07
2023-04-29T19:38:37.982Z,76.08
2023-04-29T19:41:04.449Z,76.30
2023-04-29T19:43:31.036Z,76.29
2023-04-29T19:45:57.501Z,76.11
2023-04-29T19:48:23.919Z,76.05
2023-04-29T19:50:50.881Z,76.10
2023-04-29T19:53:17.271Z,76.70
2023-04-29T19:55:46.360Z,76.77
2023-04-29T19:58:13.049Z,76.66
2023-04-29T20:00:39.513Z,76.91
2023-04-29T20:03:06.037Z,76.72
2023-04-29T20:05:32.846Z,76.57
2023-04-29T20:07:59.445Z,76.58
2023-04-29T20:10:28.216Z,76.95
2023-04-29T20:12:56.640Z,77.26
2023-04-29T20:15:23.141Z,78.09
2023-04-29T20:17:49.850Z,79.52
2023-04-29T20:20:16.509Z,79.37
2023-04-29T20:22:42.941Z,79.71
2023-04-29T20:25:09.384Z,79.13
2023-04-29T20:27:36.020Z,79.02
2023-04-29T20:30:02.718Z,82.83
2023-04-29T20:32:29.157Z,85.89
2023-04-29T20:34:55.649Z,87.26
2023-04-29T20:37:22.060Z,87.94
2023-04-29T20:39:48.854Z,87.94
2023-04-29T20:42:15.466Z,88.42
2023-04-29T20:44:42.060Z,88.70
2023-04-29T20:47:08.425Z,88.68
2023-04-29T20:49:37.528Z,88.34
2023-04-29T20:52:04.267Z,88.09
2023-04-29T20:54:30.612Z,88.44
2023-04-29T20:56:59.855Z,88.98
2023-04-29T20:59:27.150Z,89.08
2023-04-29T21:01:53.983Z,89.12
2023-04-29T21:04:20.560Z,89.78
2023-04-29T21:06:46.993Z,89.26
2023-04-29T21:09:13.833Z,86.06
2023-04-29T21:11:40.246Z,85.87
2023-04-29T21:14:20.962Z,84.63
2023-04-29T21:16:47.426Z,84.59
2023-04-29T21:19:16.479Z,85.43
2023-04-29T21:21:42.823Z,84.70
2023-04-29T21:24:09.356Z,84.57
2023-04-29T21:26:35.755Z,85.30
2023-04-29T21:29:02.311Z,84.84
2023-04-29T21:31:32.403Z,83.99
2023-04-29T21:33:58.949Z,83.60
2023-04-29T21:36:25.616Z,84.03
2023-04-29T21:38:52.173Z,82.88
2023-04-29T21:41:23.015Z,84.02
2023-04-29T21:43:49.891Z,86.66
2023-04-29T21:46:16.619Z,85.72
2023-04-29T21:48:43.439Z,86.12
2023-04-29T21:51:10.019Z,87.79
2023-04-29T21:53:36.708Z,89.42
2023-04-29T21:56:04.407Z,90.34
2023-04-29T21:58:30.841Z,90.56
2023-04-29T22:00:57.344Z,90.62
2023-04-29T22:03:23.865Z,90.06
2023-04-29T22:05:50.348Z,89.64
2023-04-29T22:08:16.964Z,89.66
2023-04-29T22:10:43.378Z,89.05
2023-04-29T22:13:09.927Z,90.11
2023-04-29T22:15:36.291Z,89.35
2023-04-29T22:18:02.707Z,91.17
2023-04-29T22:20:29.087Z,91.43
2023-04-29T22:22:55.617Z,91.47
2023-04-29T22:25:22.168Z,91.72
2023-04-29T22:27:49.237Z,91.68
2023-04-29T22:30:15.580Z,91.43
2023-04-29T22:32:41.978Z,90.97
2023-04-29T22:35:08.462Z,90.37
2023-04-29T22:37:34.921Z,90.59
2023-04-29T22:40:01.253Z,91.24
2023-04-29T22:42:27.599Z,89.10
2023-04-29T22:44:53.935Z,88.69
2023-04-29T22:47:20.418Z,89.27
2023-04-29T22:49:46.856Z,89.10
2023-04-29T22:52:13.339Z,90.64
2023-04-29T22:54:39.758Z,91.01
2023-04-29T22:57:06.222Z,91.49
2023-04-29T22:59:32.820Z,91.75
2023-04-29T23:01:59.265Z,91.81
2023-04-29T23:04:25.645Z,91.88
2023-04-29T23:06:52.132Z,92.02
2023-04-29T23:09:18.438Z,92.06
2023-04-29T23:11:45.043Z,92.13
2023-04-29T23:14:11.379Z,91.99
2023-04-29T23:16:37.701Z,92.39
2023-04-29T23:19:04.088Z,92.57
2023-04-29T23:21:30.474Z,92.70
2023-04-29T23:23:56.903Z,92.65
2023-04-29T23:26:23.269Z,92.86
2023-04-29T23:28:49.948Z,92.77
2023-04-29T23:31:16.317Z,92.63
2023-04-29T23:33:42.802Z,92.16
2023-04-29T23:36:09.177Z,92.69
2023-04-29T23:38:35.514Z,92.74
2023-04-29T23:41:02.031Z,92.85
2023-04-29T23:43:28.581Z,93.06
2023-04-29T23:45:55.154Z,93.38
2023-04-29T23:48:21.512Z,93.27
2023-04-29T23:50:47.845Z,93.27
2023-04-29T23:53:14.343Z,93.29
2023-04-29T23:55:40.752Z,93.53
2023-04-29T23:58:07.090Z,93.63
